Tilton, IL (61833)

9:09 AM CST on February 12, 2016 (GMT -0600)
Vermilion County Emergency Management Agency | | Change Station
CLOSE
Current Station
Personal Weather Station
Location: Danville, IL
Elevation: 655 ft
Nearby Weather Stations

Elev 655 ft 40.08 °N, 87.63 °W | Updated 12 seconds ago

Overcast
Overcast
23.6 °F
Feels Like 14 °F
N
9.2
Wind Variable Wind from WSW
Gusts 9.2 mph

Today
High -- | Low -- °F
--% Chance of Precip.
Yesterday
High -- | Low -- °F
Precip. -- in
Pressure 30.15 in
Visibility 10.0 miles
Clouds Mostly Cloudy 1200 ft
Overcast 6000 ft
Windchill 14 °F
Dew Point 24 °F
Humidity 100%
Rainfall 0.00 in
Snow Depth Not available.
6:47 AM 5:22 PM
Waxing Crescent, 21% visible
METAR KDNV 121455Z AUTO 25009KT 10SM BKN012 OVC060 M06/M08 A3015 RMK AO2 T10571079
Pressure 30.15 in
Visibility 10.0 miles
Clouds Mostly Cloudy 1200 ft
Overcast 6000 ft
Windchill 14 °F
Dew Point 24 °F
Humidity 100%
Rainfall 0.00 in
Snow Depth Not available.
6:47 AM 5:22 PM
Waxing Crescent, 21% visible
METAR KDNV 121455Z AUTO 25009KT 10SM BKN012 OVC060 M06/M08 A3015 RMK AO2 T10571079

10-Day Weather Forecast

Almanac

Astronomy

Feb. 12, 2016 Rise Set
Actual Time
Civil Twilight
Nautical Twilight
Astronomical Twilight
Moon
Length of Visible Light
Length of Day
Tomorrow will be .
, % of the Moon is Illuminated

Today's Extremes

State Highs State Lows

Community

WunderPhotos

Upload Photos

1,892,323 photos uploaded!

WunderBlog® & News

Nearby

Air Quality

  Air Quality AQ Index Pollutant
Not available.

Snow Depth

Station Depth Elevation

Earthquake Activity

City Distance Mag. Time & Date
Minimum magnitude displayed is 2.5.

Coastal Water Temperatures

Place Temperature

Stations

Nearby Weather Stations

Station Location Temp. Windchill Dew Point Humidity Wind Precip. Elev Updated Type
                   

Watches & Warnings

There are currently no watches in effect.